^^
Meteo Knjazevac Station Historical Data
Daily Summary for March 19, 2022 Units:  Both    English   Metric
Daily Weekly Monthly Yearly Custom
  High: Low: Average:
Temperature: 57.1 °F /  13.9 °C 48.6 °F /  9.2 °C 50.9 °F /  10.5 °C
Dew Point: 52.8 °F /  11.6 °C 48.3 °F /  9.1 °C 50.1 °F /  10.1 °C
Humidity: 99% 85.2% 97%
Wind Speed: 8.6mph /  13.8km/h - 3.4mph /  5.5km/h
Wind Gust: 12mph /  19.3km/h - -
Wind- - WSW
Pressure: 29.89 in /  1012.1 hPa 29.71 in /  1006 hPa -
Precipitation: 0.00 in /  0 mm    
Historical Graphs
 
 
Tabular Data for March 19, 2022
Time Temperature Dew Point Pressure Wind Wind Speed Wind Gust Humidity Rainfall Rate (Hourly) solar Conditions
00:04 52.8 °F /  11.6 °C 52.5 °F /  11.4 °C 29.71in /  1006hPa NE 2.4mph /  3.9km/h 3mph /  4.8km/h 99% 0.00in /  0mm 0 W/m2
00:09 52.7 °F /  11.5 °C 52.4 °F /  11.3 °C 29.71in /  1006hPa NNE 2.9mph /  4.7km/h 3mph /  4.8km/h 99% 0.00in /  0mm 0 W/m2
00:14 52.7 °F /  11.5 °C 52.4 °F /  11.3 °C 29.71in /  1006hPa NW 2.9mph /  4.7km/h 4mph /  6.4km/h 99% 0.00in /  0mm 0 W/m2
00:19 52.7 °F /  11.5 °C 52.4 °F /  11.3 °C 29.71in /  1006hPa WNW 4.2mph /  6.8km/h 5mph /  8km/h 99% 0.00in /  0mm 0 W/m2
00:24 52.6 °F /  11.4 °C 52.3 °F /  11.3 °C 29.71in /  1006hPa WNW 2.8mph /  4.5km/h 5mph /  8km/h 99% 0.00in /  0mm 0 W/m2
00:29 52.3 °F /  11.3 °C 52.1 °F /  11.2 °C 29.71in /  1006hPa NW 2.6mph /  4.2km/h 3mph /  4.8km/h 99% 0.00in /  0mm 0 W/m2
00:34 52.1 °F /  11.2 °C 51.8 °F /  11 °C 29.71in /  1006hPa North 1mph /  1.6km/h 3mph /  4.8km/h 99% 0.00in /  0mm 0 W/m2
00:39 51.9 °F /  11.1 °C 51.6 °F /  10.9 °C 29.72in /  1006.3hPa Calm   2mph /  3.2km/h 99% 0.00in /  0mm 0 W/m2
00:44 51.8 °F /  11 °C 51.5 °F /  10.8 °C 29.72in /  1006.3hPa Calm     99% 0.00in /  0mm 0 W/m2
00:49 51.6 °F /  10.9 °C 51.3 °F /  10.7 °C 29.72in /  1006.3hPa North 0.4mph /  0.6km/h 0.7mph /  1.1km/h 99% 0.00in /  0mm 0 W/m2
00:54 51.5 °F /  10.8 °C 51.2 °F /  10.7 °C 29.71in /  1006hPa North 1.3mph /  2.1km/h 1mph /  1.6km/h 99% 0.00in /  0mm 0 W/m2
00:59 51.4 °F /  10.8 °C 51.2 °F /  10.7 °C 29.71in /  1006hPa NNW 2.6mph /  4.2km/h 3mph /  4.8km/h 99% 0.00in /  0mm 0 W/m2
01:04 51.4 °F /  10.8 °C 51.1 °F /  10.6 °C 29.72in /  1006.3hPa NW 0.9mph /  1.4km/h 3mph /  4.8km/h 99% 0.00in /  0mm 0 W/m2
01:09 51.3 °F /  10.7 °C 51 °F /  10.6 °C 29.72in /  1006.3hPa WNW 1.4mph /  2.3km/h 2mph /  3.2km/h 99% 0.00in /  0mm 0 W/m2
01:14 51.2 °F /  10.7 °C 50.9 °F /  10.5 °C 29.73in /  1006.7hPa West 3.6mph /  5.8km/h 4mph /  6.4km/h 99% 0.00in /  0mm 0 W/m2
01:19 51 °F /  10.6 °C 50.7 °F /  10.4 °C 29.72in /  1006.3hPa WNW 4.2mph /  6.8km/h 5mph /  8km/h 99% 0.00in /  0mm 0 W/m2
01:24 50.8 °F /  10.4 °C 50.5 °F /  10.3 °C 29.73in /  1006.7hPa WNW 3.9mph /  6.3km/h 5mph /  8km/h 99% 0.00in /  0mm 0 W/m2
01:29 50.6 °F /  10.3 °C 50.4 °F /  10.2 °C 29.73in /  1006.7hPa WNW 3.7mph /  6km/h 5mph /  8km/h 99% 0.00in /  0mm 0 W/m2
01:34 50.5 °F /  10.3 °C 50.3 °F /  10.2 °C 29.73in /  1006.7hPa NW 3.5mph /  5.6km/h 4mph /  6.4km/h 99% 0.00in /  0mm 0 W/m2
01:39 50.4 °F /  10.2 °C 50.2 °F /  10.1 °C 29.74in /  1007hPa WNW 3.5mph /  5.6km/h 4mph /  6.4km/h 99% 0.00in /  0mm 0 W/m2
01:44 50.4 °F /  10.2 °C 50.1 °F /  10.1 °C 29.74in /  1007hPa West 4.1mph /  6.6km/h 4mph /  6.4km/h 99% 0.00in /  0mm 0 W/m2
01:49 50.4 °F /  10.2 °C 50.1 °F /  10.1 °C 29.74in /  1007hPa WNW 4.1mph /  6.6km/h 5mph /  8km/h 99% 0.00in /  0mm 0 W/m2
01:54 50.2 °F /  10.1 °C 49.9 °F /  9.9 °C 29.75in /  1007.3hPa NW 4.3mph /  6.9km/h 5mph /  8km/h 99% 0.00in /  0mm 0 W/m2
01:59 50.3 °F /  10.2 °C 50 °F /  10 °C 29.75in /  1007.3hPa NW 4.4mph /  7.1km/h 6mph /  9.7km/h 99% 0.00in /  0mm 0 W/m2
02:04 50.4 °F /  10.2 °C 50.1 °F /  10.1 °C 29.75in /  1007.3hPa NW 6.7mph /  10.8km/h 5.1mph /  8.2km/h 99% 0.00in /  0mm 0 W/m2
02:09 50.7 °F /  10.4 °C 50.4 °F /  10.2 °C 29.75in /  1007.3hPa NNW 6.3mph /  10.1km/h 8mph /  12.9km/h 99% 0.00in /  0mm 0 W/m2
02:14 51 °F /  10.6 °C 50.7 °F /  10.4 °C 29.75in /  1007.3hPa NW 6.3mph /  10.1km/h 7mph /  11.3km/h 99% 0.00in /  0mm 0 W/m2
02:19 51.1 °F /  10.6 °C 50.8 °F /  10.4 °C 29.76in /  1007.7hPa NW 4.5mph /  7.2km/h 8mph /  12.9km/h 99% 0.00in /  0mm 0 W/m2
02:24 51.1 °F /  10.6 °C 50.8 °F /  10.4 °C 29.76in /  1007.7hPa NW 3.5mph /  5.6km/h 6mph /  9.7km/h 99% 0.00in /  0mm 0 W/m2
02:29 50.9 °F /  10.5 °C 50.6 °F /  10.3 °C 29.76in /  1007.7hPa WNW 2.9mph /  4.7km/h 5mph /  8km/h 99% 0.00in /  0mm 0 W/m2
02:34 50.7 °F /  10.4 °C 50.4 °F /  10.2 °C 29.76in /  1007.7hPa WNW 2.4mph /  3.9km/h 3mph /  4.8km/h 99% 0.00in /  0mm 0 W/m2
02:39 50.3 °F /  10.2 °C 50 °F /  10 °C 29.76in /  1007.7hPa NNE 1.4mph /  2.3km/h 3mph /  4.8km/h 99% 0.00in /  0mm 0 W/m2
02:44 50 °F /  10 °C 49.7 °F /  9.8 °C 29.77in /  1008hPa NE 2mph /  3.2km/h 2mph /  3.2km/h 99% 0.00in /  0mm 0 W/m2
02:49 49.8 °F /  9.9 °C 49.6 °F /  9.8 °C 29.77in /  1008hPa North 1.5mph /  2.4km/h 2mph /  3.2km/h 99% 0.00in /  0mm 0 W/m2
02:54 49.7 °F /  9.8 °C 49.5 °F /  9.7 °C 29.77in /  1008hPa NNW 1.9mph /  3.1km/h 2mph /  3.2km/h 99% 0.00in /  0mm 0 W/m2
02:59 49.6 °F /  9.8 °C 49.4 °F /  9.7 °C 29.78in /  1008.4hPa NW 1.6mph /  2.6km/h 3mph /  4.8km/h 99% 0.00in /  0mm 0 W/m2
03:04 49.6 °F /  9.8 °C 49.4 °F /  9.7 °C 29.78in /  1008.4hPa WNW 1mph /  1.6km/h 3mph /  4.8km/h 99% 0.00in /  0mm 0 W/m2
03:09 49.6 °F /  9.8 °C 49.4 °F /  9.7 °C 29.78in /  1008.4hPa WNW 2mph /  3.2km/h 2mph /  3.2km/h 99% 0.00in /  0mm 0 W/m2
03:14 49.6 °F /  9.8 °C 49.4 °F /  9.7 °C 29.78in /  1008.4hPa WNW 1.5mph /  2.4km/h 3mph /  4.8km/h 99% 0.00in /  0mm 0 W/m2
03:19 49.6 °F /  9.8 °C 49.4 °F /  9.7 °C 29.78in /  1008.4hPa NW 0.8mph /  1.3km/h 2mph /  3.2km/h 99% 0.00in /  0mm 0 W/m2
03:24 49.8 °F /  9.9 °C 49.6 °F /  9.8 °C 29.78in /  1008.4hPa NNW 2mph /  3.2km/h 2mph /  3.2km/h 99% 0.00in /  0mm 0 W/m2
03:29 49.8 °F /  9.9 °C 49.6 °F /  9.8 °C 29.78in /  1008.4hPa NNW 4mph /  6.4km/h 5mph /  8km/h 99% 0.00in /  0mm 0 W/m2
03:34 50 °F /  10 °C 49.7 °F /  9.8 °C 29.78in /  1008.4hPa NW 4.1mph /  6.6km/h 6mph /  9.7km/h 99% 0.00in /  0mm 0 W/m2
03:39 50 °F /  10 °C 49.7 °F /  9.8 °C 29.78in /  1008.4hPa NW 4.3mph /  6.9km/h 7mph /  11.3km/h 99% 0.00in /  0mm 0 W/m2
03:44 49.9 °F /  9.9 °C 49.7 °F /  9.8 °C 29.79in /  1008.7hPa West 4.6mph /  7.4km/h 6mph /  9.7km/h 99% 0.00in /  0mm 0 W/m2
03:49 49.4 °F /  9.7 °C 49.2 °F /  9.6 °C 29.79in /  1008.7hPa WSW 4.8mph /  7.7km/h 5mph /  8km/h 99% 0.00in /  0mm 0 W/m2
03:54 49.1 °F /  9.5 °C 48.8 °F /  9.3 °C 29.79in /  1008.7hPa SW 5mph /  8km/h 6mph /  9.7km/h 99% 0.00in /  0mm 0 W/m2
03:59 49.1 °F /  9.5 °C 48.8 °F /  9.3 °C 29.79in /  1008.7hPa SW 5.7mph /  9.2km/h 6mph /  9.7km/h 99% 0.00in /  0mm 0 W/m2
04:04 49.1 °F /  9.5 °C 48.8 °F /  9.3 °C 29.79in /  1008.7hPa SW 5.4mph /  8.7km/h 6mph /  9.7km/h 99% 0.00in /  0mm 0 W/m2
04:09 49.3 °F /  9.6 °C 49 °F /  9.4 °C 29.80in /  1009hPa SW 5.8mph /  9.3km/h 6mph /  9.7km/h 99% 0.00in /  0mm 0 W/m2
04:14 49.5 °F /  9.7 °C 49.2 °F /  9.6 °C 29.80in /  1009hPa SW 5.7mph /  9.2km/h 6mph /  9.7km/h 99% 0.00in /  0mm 0 W/m2
04:19 49.5 °F /  9.7 °C 49.3 °F /  9.6 °C 29.80in /  1009hPa WSW 7.1mph /  11.4km/h 7mph /  11.3km/h 99% 0.00in /  0mm 0 W/m2
04:24 49.6 °F /  9.8 °C 49.3 °F /  9.6 °C 29.81in /  1009.4hPa West 8.6mph /  13.8km/h 9mph /  14.5km/h 98.6% 0.00in /  0mm 0 W/m2
04:29 49.8 °F /  9.9 °C 49.3 °F /  9.6 °C 29.81in /  1009.4hPa West 8mph /  12.9km/h 12mph /  19.3km/h 98% 0.00in /  0mm 0 W/m2
04:34 49.8 °F /  9.9 °C 48.9 °F /  9.4 °C 29.81in /  1009.4hPa West 8.5mph /  13.7km/h 10mph /  16.1km/h 96.5% 0.00in /  0mm 0 W/m2
04:39 49.9 °F /  9.9 °C 48.8 °F /  9.3 °C 29.81in /  1009.4hPa West 7.3mph /  11.7km/h 9mph /  14.5km/h 96% 0.00in /  0mm 0 W/m2
04:44 49.8 °F /  9.9 °C 48.7 °F /  9.3 °C 29.81in /  1009.4hPa West 7.7mph /  12.4km/h 8mph /  12.9km/h 96% 0.00in /  0mm 0 W/m2
04:49 49.8 °F /  9.9 °C 48.7 °F /  9.3 °C 29.82in /  1009.7hPa West 5.8mph /  9.3km/h 9mph /  14.5km/h 96% 0.00in /  0mm 0 W/m2
04:54 49.8 °F /  9.9 °C 48.7 °F /  9.3 °C 29.82in /  1009.7hPa West 6.6mph /  10.6km/h 7mph /  11.3km/h 96% 0.00in /  0mm 0 W/m2
04:59 49.7 °F /  9.8 °C 48.6 °F /  9.2 °C 29.82in /  1009.7hPa West 7.5mph /  12.1km/h 8mph /  12.9km/h 96% 0.00in /  0mm 0 W/m2
05:04 49.6 °F /  9.8 °C 48.5 °F /  9.2 °C 29.82in /  1009.7hPa WSW 5.8mph /  9.3km/h 8mph /  12.9km/h 96% 0.00in /  0mm 0 W/m2
05:09 49.6 °F /  9.8 °C 48.6 °F /  9.2 °C 29.82in /  1009.7hPa SW 4.4mph /  7.1km/h 7mph /  11.3km/h 96.4% 0.00in /  0mm 0 W/m2
05:14 49.5 °F /  9.7 °C 49 °F /  9.4 °C 29.82in /  1009.7hPa SSW 2.9mph /  4.7km/h 5mph /  8km/h 98.4% 0.00in /  0mm 0 W/m2
05:19 49.3 °F /  9.6 °C 49 °F /  9.4 °C 29.82in /  1009.7hPa SSW 2.3mph /  3.7km/h 4mph /  6.4km/h 99% 0.00in /  0mm 0 W/m2
05:24 49.3 °F /  9.6 °C 49 °F /  9.4 °C 29.82in /  1009.7hPa SW 3.4mph /  5.5km/h 3mph /  4.8km/h 99% 0.00in /  0mm 0 W/m2
05:29 49.4 °F /  9.7 °C 48.7 °F /  9.3 °C 29.83in /  1010hPa SW 4.9mph /  7.9km/h 5mph /  8km/h 97.5% 0.00in /  0mm 0 W/m2
05:34 49.6 °F /  9.8 °C 48.6 °F /  9.2 °C 29.83in /  1010hPa WSW 3.4mph /  5.5km/h 6mph /  9.7km/h 96.4% 0.00in /  0mm 0 W/m2
05:39 49.5 °F /  9.7 °C 49 °F /  9.4 °C 29.83in /  1010hPa SW 3.2mph /  5.1km/h 4mph /  6.4km/h 98.2% 0.00in /  0mm 0 W/m2
05:44 49.5 °F /  9.7 °C 49.2 °F /  9.6 °C 29.83in /  1010hPa South 2.3mph /  3.7km/h 4mph /  6.4km/h 99% 0.00in /  0mm 0 W/m2
05:49 49.5 °F /  9.7 °C 49.2 °F /  9.6 °C 29.83in /  1010hPa NNE 2.3mph /  3.7km/h 3mph /  4.8km/h 99% 0.00in /  0mm 0 W/m2
05:54 49.4 °F /  9.7 °C 49.1 °F /  9.5 °C 29.83in /  1010hPa NNW 1.5mph /  2.4km/h 3mph /  4.8km/h 99% 0.00in /  0mm 0 W/m2
05:59 49.3 °F /  9.6 °C 49 °F /  9.4 °C 29.83in /  1010hPa WNW 2.5mph /  4km/h 3mph /  4.8km/h 99% 0.00in /  0mm 0 W/m2
06:04 49.3 °F /  9.6 °C 49 °F /  9.4 °C 29.83in /  1010hPa SW 2.2mph /  3.5km/h 3mph /  4.8km/h 99% 0.00in /  0mm 0 W/m2
06:09 49.3 °F /  9.6 °C 49 °F /  9.4 °C 29.83in /  1010hPa SW 2.1mph /  3.4km/h 2mph /  3.2km/h 99% 0.00in /  0mm 0 W/m2
06:14 49.2 °F /  9.6 °C 48.9 °F /  9.4 °C 29.83in /  1010hPa WSW 1.9mph /  3.1km/h 3mph /  4.8km/h 99% 0.00in /  0mm 0 W/m2
06:19 49.3 °F /  9.6 °C 49 °F /  9.4 °C 29.83in /  1010hPa SSE 3.6mph /  5.8km/h 3mph /  4.8km/h 99% 0.00in /  0mm 0 W/m2
06:24 49.3 °F /  9.6 °C 49 °F /  9.4 °C 29.83in /  1010hPa East 3mph /  4.8km/h 5mph /  8km/h 99% 0.00in /  0mm 2 W/m2
06:29 49.2 °F /  9.6 °C 48.9 °F /  9.4 °C 29.83in /  1010hPa ENE 2.3mph /  3.7km/h 3mph /  4.8km/h 99% 0.00in /  0mm 3 W/m2
06:34 49.1 °F /  9.5 °C 48.8 °F /  9.3 °C 29.84in /  1010.4hPa ENE 2.1mph /  3.4km/h 3mph /  4.8km/h 99% 0.00in /  0mm 4 W/m2
06:39 49 °F /  9.4 °C 48.7 °F /  9.3 °C 29.84in /  1010.4hPa SSW 2.2mph /  3.5km/h 2mph /  3.2km/h 99% 0.00in /  0mm 6 W/m2
06:44 48.9 °F /  9.4 °C 48.7 °F /  9.3 °C 29.85in /  1010.7hPa WSW 3.8mph /  6.1km/h 2.9mph /  4.7km/h 99% 0.00in /  0mm 10 W/m2
06:49 48.8 °F /  9.3 °C 48.6 °F /  9.2 °C 29.85in /  1010.7hPa WSW 2.5mph /  4km/h 5mph /  8km/h 99% 0.00in /  0mm 18 W/m2
06:54 48.7 °F /  9.3 °C 48.5 °F /  9.2 °C 29.85in /  1010.7hPa WSW 2.7mph /  4.3km/h 3mph /  4.8km/h 99% 0.00in /  0mm 25 W/m2
06:59 48.7 °F /  9.3 °C 48.5 °F /  9.2 °C 29.85in /  1010.7hPa WSW 3.4mph /  5.5km/h 4mph /  6.4km/h 99% 0.00in /  0mm 39 W/m2
07:04 48.7 °F /  9.3 °C 48.4 °F /  9.1 °C 29.85in /  1010.7hPa WSW 3.8mph /  6.1km/h 4mph /  6.4km/h 99% 0.00in /  0mm 43 W/m2
07:09 48.6 °F /  9.2 °C 48.3 °F /  9.1 °C 29.86in /  1011.1hPa WSW 5mph /  8km/h 5mph /  8km/h 99% 0.00in /  0mm 50 W/m2
07:14 48.7 °F /  9.3 °C 48.5 °F /  9.2 °C 29.86in /  1011.1hPa WSW 5.2mph /  8.4km/h 6mph /  9.7km/h 99% 0.00in /  0mm 53 W/m2
07:19 48.8 °F /  9.3 °C 48.6 °F /  9.2 °C 29.86in /  1011.1hPa SW 2.6mph /  4.2km/h 6mph /  9.7km/h 99% 0.00in /  0mm 55 W/m2
07:24 48.9 °F /  9.4 °C 48.7 °F /  9.3 °C 29.86in /  1011.1hPa WSW 2.2mph /  3.5km/h 2mph /  3.2km/h 99% 0.00in /  0mm 69 W/m2
07:29 49.1 °F /  9.5 °C 48.8 °F /  9.3 °C 29.87in /  1011.4hPa West 2.2mph /  3.5km/h 3mph /  4.8km/h 99% 0.00in /  0mm 72 W/m2
07:34 49.3 °F /  9.6 °C 49 °F /  9.4 °C 29.87in /  1011.4hPa North 1.4mph /  2.3km/h 3mph /  4.8km/h 99% 0.00in /  0mm 95 W/m2
07:39 49.5 °F /  9.7 °C 49.3 °F /  9.6 °C 29.87in /  1011.4hPa NE 2.4mph /  3.9km/h 3mph /  4.8km/h 99% 0.00in /  0mm 106 W/m2
07:44 49.6 °F /  9.8 °C 49.4 °F /  9.7 °C 29.87in /  1011.4hPa NE 2.1mph /  3.4km/h 3mph /  4.8km/h 99% 0.00in /  0mm 93 W/m2
07:49 49.7 °F /  9.8 °C 49.5 °F /  9.7 °C 29.87in /  1011.4hPa West 2.4mph /  3.9km/h 3mph /  4.8km/h 99% 0.00in /  0mm 92 W/m2
07:54 49.8 °F /  9.9 °C 49.6 °F /  9.8 °C 29.87in /  1011.4hPa WSW 2.1mph /  3.4km/h 3mph /  4.8km/h 99% 0.00in /  0mm 88 W/m2
07:59 50 °F /  10 °C 49.7 °F /  9.8 °C 29.87in /  1011.4hPa WSW 3mph /  4.8km/h 3mph /  4.8km/h 99% 0.00in /  0mm 92 W/m2
08:04 50.1 °F /  10.1 °C 49.8 °F /  9.9 °C 29.88in /  1011.7hPa WSW 3mph /  4.8km/h 3mph /  4.8km/h 99% 0.00in /  0mm 92 W/m2
08:09 50.2 °F /  10.1 °C 49.9 °F /  9.9 °C 29.88in /  1011.7hPa West 3.7mph /  6km/h 4mph /  6.4km/h 99% 0.00in /  0mm 104 W/m2
08:14 50.3 °F /  10.2 °C 50 °F /  10 °C 29.88in /  1011.7hPa WSW 3.2mph /  5.1km/h 5mph /  8km/h 99% 0.00in /  0mm 109 W/m2
08:19 50.4 °F /  10.2 °C 50.1 °F /  10.1 °C 29.88in /  1011.7hPa WSW 4mph /  6.4km/h 4mph /  6.4km/h 99% 0.00in /  0mm 92 W/m2
08:24 50.5 °F /  10.3 °C 50.1 °F /  10.1 °C 29.88in /  1011.7hPa West 4.1mph /  6.6km/h 5mph /  8km/h 98.5% 0.00in /  0mm 125 W/m2
08:29 50.6 °F /  10.3 °C 50.1 °F /  10.1 °C 29.88in /  1011.7hPa WSW 3.5mph /  5.6km/h 5mph /  8km/h 98% 0.00in /  0mm 280 W/m2
08:34 51.3 °F /  10.7 °C 50.7 °F /  10.4 °C 29.88in /  1011.7hPa WSW 3.8mph /  6.1km/h 5mph /  8km/h 98% 0.00in /  0mm 375 W/m2
08:39 52.3 °F /  11.3 °C 51.4 °F /  10.8 °C 29.88in /  1011.7hPa WSW 4.1mph /  6.6km/h 5mph /  8km/h 96.9% 0.00in /  0mm 426 W/m2
08:44 53.2 °F /  11.8 °C 51.9 °F /  11.1 °C 29.88in /  1011.7hPa West 3.4mph /  5.5km/h 5mph /  8km/h 95.4% 0.00in /  0mm 378 W/m2
08:49 53.7 °F /  12.1 °C 51.8 °F /  11 °C 29.88in /  1011.7hPa WSW 3mph /  4.8km/h 3mph /  4.8km/h 93.4% 0.00in /  0mm 355 W/m2
08:54 53.8 °F /  12.1 °C 51.7 °F /  10.9 °C 29.88in /  1011.7hPa WSW 2.8mph /  4.5km/h 4mph /  6.4km/h 92.6% 0.00in /  0mm 274 W/m2
08:59 53.8 °F /  12.1 °C 51.9 °F /  11.1 °C 29.88in /  1011.7hPa SW 2.6mph /  4.2km/h 4mph /  6.4km/h 93.4% 0.00in /  0mm 271 W/m2
09:04 53.8 °F /  12.1 °C 51.8 °F /  11 °C 29.88in /  1011.7hPa WSW 3.4mph /  5.5km/h 3mph /  4.8km/h 93% 0.00in /  0mm 259 W/m2
09:09 53.8 °F /  12.1 °C 51.8 °F /  11 °C 29.88in /  1011.7hPa WSW 2.7mph /  4.3km/h 3mph /  4.8km/h 93% 0.00in /  0mm 199 W/m2
09:14 54 °F /  12.2 °C 51.7 °F /  10.9 °C 29.88in /  1011.7hPa West 1.7mph /  2.7km/h 3mph /  4.8km/h 92.3% 0.00in /  0mm 207 W/m2
09:19 53.9 °F /  12.2 °C 51.3 °F /  10.7 °C 29.88in /  1011.7hPa WNW 2.7mph /  4.3km/h 2mph /  3.2km/h 91% 0.00in /  0mm 146 W/m2
09:24 53.7 °F /  12.1 °C 51.2 °F /  10.7 °C 29.88in /  1011.7hPa West 2mph /  3.2km/h 3mph /  4.8km/h 91.3% 0.00in /  0mm 159 W/m2
09:29 53.7 °F /  12.1 °C 51.6 °F /  10.9 °C 29.88in /  1011.7hPa West 2.5mph /  4km/h 2mph /  3.2km/h 92.9% 0.00in /  0mm 195 W/m2
09:34 53.9 °F /  12.2 °C 51.9 °F /  11.1 °C 29.88in /  1011.7hPa West 3.2mph /  5.1km/h 3mph /  4.8km/h 93.2% 0.00in /  0mm 287 W/m2
09:39 54.2 °F /  12.3 °C 52 °F /  11.1 °C 29.88in /  1011.7hPa WSW 2.1mph /  3.4km/h 3mph /  4.8km/h 92.3% 0.00in /  0mm 633 W/m2
09:44 55.2 °F /  12.9 °C 52.7 °F /  11.5 °C 29.88in /  1011.7hPa West 2.3mph /  3.7km/h 2mph /  3.2km/h 91.5% 0.00in /  0mm 553 W/m2
09:48 56 °F /  13.3 °C 52.8 °F /  11.6 °C 29.88in /  1011.7hPa WNW 3.6mph /  5.8km/h 2.5mph /  4km/h 89.3% 0.00in /  0mm 548 W/m2
09:54 56.1 °F /  13.4 °C 52.7 °F /  11.5 °C 29.89in /  1012.1hPa SW 2.7mph /  4.3km/h 5mph /  8km/h 88.3% 0.00in /  0mm 429 W/m2
09:59 55.9 °F /  13.3 °C 52.4 °F /  11.3 °C 29.89in /  1012.1hPa West 2.4mph /  3.9km/h 3mph /  4.8km/h 88% 0.00in /  0mm 279 W/m2
10:04 55.8 °F /  13.2 °C 52.3 °F /  11.3 °C 29.88in /  1011.7hPa NW 2.5mph /  4km/h 4mph /  6.4km/h 88% 0.00in /  0mm 252 W/m2
10:09 55.8 °F /  13.2 °C 52.2 °F /  11.2 °C 29.89in /  1012.1hPa WNW 2.9mph /  4.7km/h 3mph /  4.8km/h 87.6% 0.00in /  0mm 233 W/m2
10:14 55.6 °F /  13.1 °C 51.7 °F /  10.9 °C 29.89in /  1012.1hPa WNW 2.1mph /  3.4km/h 4mph /  6.4km/h 86.6% 0.00in /  0mm 224 W/m2
10:19 55.7 °F /  13.2 °C 51.8 °F /  11 °C 29.89in /  1012.1hPa WSW 2.7mph /  4.3km/h 4mph /  6.4km/h 86.7% 0.00in /  0mm 447 W/m2
10:24 56.1 °F /  13.4 °C 51.7 °F /  10.9 °C 29.89in /  1012.1hPa SW 2.3mph /  3.7km/h 3mph /  4.8km/h 85.2% 0.00in /  0mm 653 W/m2
10:29 57.1 °F /  13.9 °C 52.8 °F /  11.6 °C 29.88in /  1011.7hPa SW 3.5mph /  5.6km/h 3.1mph /  5km/h 85.5% 0.00in /  0mm 600 W/m2
Knjazevac, Serbia
Compliments of Weather Underground - 2 mb